Pagina principale
METAR-TAF:

METAR-TAF

Aeroporti :

Aeroporto di N'Djamena-Hassan Djamous

N'Djamena, Ciad

latitudine: 12-08N, longitudine: 015-02E, altezza: 295 m

Osservazione

Il bollettino è stato emesso 1 ora e 6 minuti fa, alle 02:00 UTC
Vento 6 kt da nord/nord-est
Temperature 22°C
Umidità 43%
Pressione 1010 hPa
Visibilità: 4000 m
polvere diffusa

METAR: FTTJ 250200Z 02006KT 4000 DU NSC 22/09 Q1010 NOSIG

Ora: 04:06 (03:06 UTC)

Previsione

Il bollettino è stato emesso 4 ore e 6 minuti fa, alle 23:00 UTC
Previsione valida dal 25 alle 00 UTC al 26 alle 06 UTC
Vento 12 kt da nord-est
Visibilità: 2500 m
polvere diffusa
Evoluzione graduale
dal 25 alle 08 UTC al 25 alle 10 UTC
Visibilità: 6000 m
Temporaneamente
dal 25 alle 16 UTC al 25 alle 19 UTC
Visibilità: 4000 m
polvere diffusa

TAF: FTTJ 242300Z 2500/2606 04012KT 2500 DU NSC BECMG 2508/2510 6000 NSW TEMPO 2516/2519 4000 DU

Osservazioni e previsioni meteorologiche di più di 4000 aeroporti (messaggi METAR e TAF).

Le stazioni disponibili sono rappresentate dai dischi gialli e rossi sulla carta.

Puntare il mouse per vedere il nome della stazione.

Clicca sopra per visualizzare le osservazioni e previsioni meteorologiche.

Per cambiare la mappa : fare clic sui pulsanti verdi con una croce nera per ingrandire, il pulsante verde con un trattino per diminuire, o sulla freccia verde per le mappe adiacenti.


METAR-TAF: